KRME/RME METAR and TAF weather

Enter ICAO airport designator
Station Type Date Time Source
KRME METAR 2021/09/16 10:53 UTC NOAA

KRME 161053Z 00000KT 1/4SM FG VV002 14/14 A3023 RMK AO2 SLP234 T01440144


Station Type Date Time Source
KRME Decoded METAR 2021/09/16 10:53 UTC NOAA

GRIFFISS AIRFIELD, NY, United States (KRME) 43-14N 075-24W
Sep 16, 2021 - 06:53 AM EDT / 2021.09.16 1053 UTC
Wind: Calm:0
Visibility: 1/4 mile(s):0
Sky conditions: obscured
Weather: fog
Temperature: 57.9 F (14.4 C)
Dew Point: 57.9 F (14.4 C)
Relative Humidity: 100%
Pressure (altimeter): 30.23 in. Hg (1023 hPa)
ob: KRME 161053Z 00000KT 1/4SM FG VV002 14/14 A3023 RMK AO2 SLP234 T01440144
cycle: 11

Station Type Date Time Source
KRME TAF 2021/09/16 10:58 UTC NOAA

TAF
AMD KRME 160957Z 1610/1706 08003KT 1/4SM FG VV002
FM161100 09003KT 2SM BR BKN005
FM161230 11004KT P6SM SCT060

Example: see airport list